Time;durP1;ratioP1;P1;durP2;ratioP2;P2;SDS_P1;SDS_P2;PMS_P1;PMS_P2;Temp;Humidity;BMP_temperature;BMP_pressure;BME280_temperature;BME280_humidity;BME280_pressure;Samples;Min_cycle;Max_cycle;Signal;HPM_P1;HPM_P2
2022/07/28 00:10:01;;;;;;;5.32;4.78;;;35.60;99.90;;;;;;5126919;22;20236;-94
2022/07/28 00:12:33;;;;;;;4.50;4.10;;;35.30;99.90;;;;;;5065531;28;20212;-96
2022/07/28 00:15:06;;;;;;;5.35;4.38;;;35.50;99.90;;;;;;5064636;28;20204;-94
2022/07/28 00:17:37;;;;;;;5.15;4.63;;;35.60;99.90;;;;;;5060005;28;20212;-95
2022/07/28 00:20:11;;;;;;;8.40;4.35;;;35.30;99.90;;;;;;5065445;28;20274;-94
2022/07/28 00:22:46;;;;;;;6.20;4.70;;;35.30;99.90;;;;;;5065451;28;20242;-94
2022/07/28 00:25:21;;;;;;;5.55;4.85;;;35.50;99.90;;;;;;5061219;28;20211;-95
2022/07/28 00:27:53;;;;;;;5.93;4.72;;;35.00;99.90;;;;;;5066972;28;20231;-95
2022/07/28 00:30:25;;;;;;;5.63;4.13;;;34.60;99.90;;;;;;5044101;28;20208;-95
2022/07/28 00:32:58;;;;;;;6.53;4.90;;;34.80;99.90;;;;;;5065770;28;20227;-95
2022/07/28 00:35:31;;;;;;;4.88;4.47;;;35.00;99.90;;;;;;5068735;28;20207;-94
2022/07/28 01:03:10;;;;;;;6.43;5.10;;;34.80;99.90;;;;;;5551415;22;20236;-94
2022/07/28 01:08:29;;;;;;;5.32;4.80;;;34.70;99.90;;;;;;5960879;22;21298;-94
2022/07/28 01:11:14;;;;;;;7.65;4.50;;;34.60;99.90;;;;;;5112872;28;20198;-94
2022/07/28 01:45:12;;;;;;;5.47;4.63;;;36.70;99.90;;;;;;5114861;28;20228;-95
2022/07/28 01:47:47;;;;;;;5.82;4.90;;;36.50;99.90;;;;;;5110891;28;20231;-95
2022/07/28 01:50:28;;;;;;;5.07;4.45;;;36.50;99.90;;;;;;5109629;28;20202;-96
2022/07/28 01:53:17;;;;;;;6.30;4.85;;;36.50;99.90;;;;;;5170238;22;20240;-95
2022/07/28 01:55:52;;;;;;;5.07;4.47;;;36.40;99.90;;;;;;5064232;28;20251;-95
2022/07/28 01:58:27;;;;;;;6.75;4.35;;;36.10;99.90;;;;;;5052074;28;20525;-95
2022/07/28 02:01:02;;;;;;;5.45;4.95;;;36.00;99.90;;;;;;5064828;28;20211;-95
2022/07/28 02:03:35;;;;;;;5.65;4.80;;;35.40;99.90;;;;;;5063269;28;20268;-95
2022/07/28 02:45:24;;;;;;;5.60;4.90;;;31.60;99.90;;;;;;4990559;28;20207;-95
2022/07/28 02:48:01;;;;;;;5.40;4.32;;;31.50;99.90;;;;;;4981724;28;20238;-95
2022/07/28 04:57:34;;;;;;;5.63;4.60;;;25.80;99.90;;;;;;4981149;28;20233;-94
2022/07/28 05:00:13;;;;;;;5.47;4.63;;;25.80;99.90;;;;;;4982255;28;20214;-93
2022/07/28 05:02:47;;;;;;;8.27;4.70;;;25.70;99.90;;;;;;4982099;28;20262;-93
2022/07/28 05:05:25;;;;;;;6.77;4.47;;;25.70;99.90;;;;;;4986990;28;20202;-94
2022/07/28 05:07:56;;;;;;;9.77;4.67;;;25.60;99.90;;;;;;4984153;28;20381;-94
2022/07/28 05:10:28;;;;;;;6.37;4.20;;;25.50;99.90;;;;;;4979427;28;20211;-95
2022/07/28 05:13:06;;;;;;;6.93;4.37;;;25.50;99.90;;;;;;4980766;28;20613;-94
2022/07/28 05:15:38;;;;;;;7.93;4.17;;;25.40;99.90;;;;;;4985698;28;20249;-93
2022/07/28 05:18:09;;;;;;;5.50;3.90;;;25.30;99.90;;;;;;4981113;28;20219;-95
2022/07/28 05:20:41;;;;;;;4.63;4.20;;;25.20;99.90;;;;;;4981063;28;20582;-94
2022/07/28 05:23:12;;;;;;;5.43;4.10;;;25.20;99.90;;;;;;4982858;28;20274;-94
2022/07/28 05:25:43;;;;;;;5.20;4.00;;;25.10;99.90;;;;;;4991491;28;20382;-93
2022/07/28 05:31:16;;;;;;;6.00;3.87;;;24.90;99.90;;;;;;4990280;28;20679;-94
2022/07/28 05:33:48;;;;;;;4.37;3.70;;;24.80;99.90;;;;;;4980401;28;20203;-94
2022/07/28 05:36:21;;;;;;;5.63;3.90;;;24.80;99.90;;;;;;4980545;28;20277;-94
2022/07/28 05:38:53;;;;;;;7.63;3.87;;;24.70;99.90;;;;;;4986617;28;20222;-95
2022/07/28 05:41:25;;;;;;;6.50;4.10;;;24.60;99.90;;;;;;4986252;28;20238;-94
2022/07/28 05:44:00;;;;;;;4.67;3.83;;;24.50;99.90;;;;;;4980380;28;20210;-93
2022/07/28 05:46:31;;;;;;;6.17;4.00;;;24.50;99.90;;;;;;4982821;28;20253;-95
2022/07/28 05:49:04;;;;;;;5.60;3.70;;;24.40;99.90;;;;;;4984955;28;20282;-95
2022/07/28 05:51:50;;;;;;;3.80;3.47;;;24.40;99.90;;;;;;4989194;28;20213;-95
2022/07/28 05:54:23;;;;;;;6.40;3.77;;;24.30;99.90;;;;;;4987772;28;20214;-94
2022/07/28 05:56:54;;;;;;;4.83;3.90;;;24.30;99.90;;;;;;4980339;28;20219;-95
2022/07/28 05:59:28;;;;;;;6.47;3.90;;;24.10;99.90;;;;;;4981293;28;20211;-94
2022/07/28 06:07:54;;;;;;;7.83;3.37;;;23.90;99.90;;;;;;4980418;28;20234;-94
2022/07/28 06:10:57;;;;;;;3.27;2.50;;;23.90;99.90;;;;;;4984402;28;20210;-93
2022/07/28 06:13:19;;;;;;;4.40;3.03;;;23.80;99.90;;;;;;4984571;28;20255;-93
2022/07/28 06:15:52;;;;;;;4.67;2.87;;;23.80;99.90;;;;;;4986559;28;20676;-94
2022/07/28 06:18:24;;;;;;;5.47;2.77;;;23.80;99.90;;;;;;4998290;28;20230;-92
2022/07/28 06:20:55;;;;;;;4.30;2.70;;;23.70;99.90;;;;;;4997604;28;20191;-93
2022/07/28 06:23:27;;;;;;;5.63;2.90;;;23.60;99.90;;;;;;4992368;28;20641;-93
2022/07/28 06:25:58;;;;;;;4.43;2.93;;;23.60;99.90;;;;;;4981771;28;20207;-93
2022/07/28 06:28:31;;;;;;;2.77;2.47;;;23.60;99.90;;;;;;4983077;28;20274;-94
2022/07/28 06:31:06;;;;;;;5.63;2.53;;;23.50;99.90;;;;;;4963409;29;20211;-94
2022/07/28 06:33:38;;;;;;;4.07;2.67;;;23.50;99.90;;;;;;4963535;28;20210;-94
2022/07/28 06:36:11;;;;;;;3.27;2.63;;;23.40;99.90;;;;;;4979030;28;20230;-95
2022/07/28 06:41:20;;;;;;;2.87;2.33;;;23.30;99.90;;;;;;5508570;23;20245;-95
2022/07/28 06:43:53;;;;;;;3.60;2.70;;;23.20;99.90;;;;;;5011380;28;20210;-95
2022/07/28 06:46:49;;;;;;;5.47;3.00;;;23.10;99.90;;;;;;5002856;28;20289;-95
2022/07/28 06:49:20;;;;;;;5.87;2.60;;;23.10;99.90;;;;;;5000557;28;20234;-94
2022/07/28 06:51:52;;;;;;;3.33;2.73;;;23.00;99.90;;;;;;4998639;28;20214;-94
2022/07/28 06:54:23;;;;;;;3.00;2.70;;;23.00;99.90;;;;;;4999489;28;20249;-94
2022/07/28 06:56:55;;;;;;;3.50;2.53;;;22.90;99.90;;;;;;4998668;28;20272;-94
2022/07/28 06:59:27;;;;;;;3.30;2.50;;;22.80;99.90;;;;;;4999573;28;20229;-94
2022/07/28 07:02:02;;;;;;;4.43;3.00;;;22.80;99.90;;;;;;5003360;28;20245;-92
2022/07/28 07:04:33;;;;;;;5.67;3.20;;;22.80;99.90;;;;;;5016977;28;20206;-94
2022/07/28 07:07:13;;;;;;;4.13;3.10;;;22.70;99.90;;;;;;5003522;28;20224;-93
2022/07/28 07:09:46;;;;;;;6.17;2.87;;;22.80;99.90;;;;;;5006165;28;20594;-95
2022/07/28 07:12:19;;;;;;;4.27;3.07;;;22.70;99.90;;;;;;5013446;28;20202;-94
2022/07/28 07:14:51;;;;;;;3.33;3.03;;;22.70;99.90;;;;;;5016121;28;20210;-95
2022/07/28 07:17:26;;;;;;;3.53;2.70;;;22.60;99.90;;;;;;5016096;28;20202;-94
2022/07/28 07:19:58;;;;;;;3.43;3.10;;;22.60;99.90;;;;;;5018065;28;20202;-95
2022/07/28 07:22:29;;;;;;;5.73;3.07;;;22.60;99.90;;;;;;5016939;28;20221;-93
2022/07/28 07:25:08;;;;;;;4.13;3.10;;;22.60;99.90;;;;;;5017562;28;20613;-94
2022/07/28 07:27:39;;;;;;;3.93;2.87;;;22.60;99.90;;;;;;4670019;28;9999815;-94
2022/07/28 07:30:12;;;;;;;3.20;2.90;;;22.50;99.90;;;;;;5017597;28;20211;-94
2022/07/28 07:32:45;;;;;;;4.47;2.87;;;22.40;99.90;;;;;;5017084;28;20225;-94
2022/07/28 07:35:17;;;;;;;4.97;2.90;;;22.40;99.90;;;;;;5006293;28;20260;-94
2022/07/28 07:37:49;;;;;;;5.63;3.20;;;22.40;99.90;;;;;;4998388;28;20243;-94
2022/07/28 07:40:21;;;;;;;3.53;2.83;;;22.30;99.90;;;;;;4997364;28;20214;-94
2022/07/28 07:42:52;;;;;;;5.10;2.67;;;22.30;99.90;;;;;;4997864;28;20237;-94
2022/07/28 07:48:08;;;;;;;3.53;2.63;;;22.30;99.90;;;;;;5074382;23;20238;-95
2022/07/28 07:50:39;;;;;;;4.60;3.00;;;22.30;99.90;;;;;;5007583;28;20210;-95
2022/07/28 07:53:12;;;;;;;4.00;3.23;;;22.20;99.90;;;;;;4997781;28;20277;-96
2022/07/28 07:55:44;;;;;;;4.10;2.47;;;22.10;99.90;;;;;;4998404;28;20269;-94
2022/07/28 07:58:16;;;;;;;4.67;2.67;;;22.10;99.90;;;;;;5001157;28;20229;-95
2022/07/28 08:00:47;;;;;;;4.20;3.07;;;22.00;99.90;;;;;;5001526;28;20242;-95
2022/07/28 08:03:21;;;;;;;4.43;2.97;;;22.00;99.90;;;;;;5000390;28;20245;-96
2022/07/28 08:05:56;;;;;;;5.13;2.73;;;21.90;99.90;;;;;;4997919;28;20221;-95
2022/07/28 08:08:28;;;;;;;5.43;2.60;;;21.90;99.90;;;;;;4997331;28;20725;-95
2022/07/28 08:11:11;;;;;;;3.07;2.67;;;21.90;99.90;;;;;;4997851;28;20213;-95
2022/07/28 08:13:42;;;;;;;4.17;2.77;;;21.80;99.90;;;;;;5002570;28;20205;-94
2022/07/28 08:16:14;;;;;;;3.10;2.80;;;21.70;99.90;;;;;;4997997;28;20695;-95
2022/07/28 08:18:47;;;;;;;4.23;3.00;;;21.70;99.90;;;;;;4997460;28;20214;-95
2022/07/28 08:21:18;;;;;;;4.33;2.90;;;21.70;99.90;;;;;;4995151;28;20218;-95
2022/07/28 08:23:50;;;;;;;4.67;2.70;;;21.60;99.90;;;;;;4997535;28;20280;-95
2022/07/28 08:26:21;;;;;;;3.67;2.80;;;21.60;99.90;;;;;;4999624;28;20206;-95
2022/07/28 08:28:53;;;;;;;4.07;2.97;;;21.60;99.90;;;;;;5001864;28;20718;-95
2022/07/28 08:31:25;;;;;;;3.73;2.90;;;21.60;99.90;;;;;;5000178;28;20690;-95
2022/07/28 08:33:59;;;;;;;5.10;2.93;;;21.50;99.90;;;;;;4997065;28;20298;-95
2022/07/28 08:36:31;;;;;;;4.77;2.70;;;21.40;99.90;;;;;;5001055;28;20210;-95
2022/07/28 08:39:02;;;;;;;4.10;2.70;;;21.40;99.90;;;;;;5005765;28;20218;-95
2022/07/28 08:44:47;;;;;;;2.90;2.27;;;21.30;99.90;;;;;;5021873;28;20201;-94
2022/07/28 08:47:20;;;;;;;3.97;2.20;;;21.30;99.90;;;;;;5020821;28;20267;-95
2022/07/28 08:49:58;;;;;;;4.83;2.37;;;21.20;99.90;;;;;;5020648;28;20233;-96
2022/07/28 08:52:31;;;;;;;3.80;2.43;;;21.20;99.90;;;;;;5019614;28;20244;-94
2022/07/28 08:55:05;;;;;;;2.87;2.33;;;21.20;99.90;;;;;;5019393;28;20244;-94
2022/07/28 08:57:39;;;;;;;3.07;2.40;;;21.20;99.90;;;;;;5020379;28;20213;-94
2022/07/28 09:00:11;;;;;;;4.40;2.40;;;21.10;99.90;;;;;;5021726;28;20217;-94
2022/07/28 09:02:45;;;;;;;4.50;2.33;;;21.10;99.90;;;;;;5020176;28;20216;-94
2022/07/28 09:05:25;;;;;;;4.57;2.67;;;21.10;99.90;;;;;;5021220;28;20217;-94
2022/07/28 09:07:58;;;;;;;3.30;2.40;;;21.10;99.90;;;;;;5021178;28;20213;-94
2022/07/28 09:10:29;;;;;;;3.53;2.53;;;21.00;99.90;;;;;;5019009;28;20237;-94
2022/07/28 09:13:02;;;;;;;8.07;2.67;;;21.00;99.90;;;;;;5027746;28;20614;-94
2022/07/28 09:15:36;;;;;;;3.07;2.40;;;20.90;99.90;;;;;;5019608;28;20205;-95
2022/07/28 09:18:07;;;;;;;3.30;2.57;;;20.90;99.90;;;;;;5020416;28;20214;-94
2022/07/28 09:20:42;;;;;;;3.50;2.70;;;20.90;99.90;;;;;;5021060;28;20225;-94
2022/07/28 09:23:14;;;;;;;4.20;2.57;;;20.90;99.90;;;;;;5020729;28;20205;-94
2022/07/28 09:29:49;;;;;;;4.07;2.70;;;20.80;99.90;;;;;;5001895;28;20260;-93
2022/07/28 09:32:21;;;;;;;4.60;2.60;;;20.70;99.90;;;;;;5000166;28;20218;-94
2022/07/28 09:34:53;;;;;;;3.27;2.67;;;20.70;99.90;;;;;;5000454;28;20284;-93
2022/07/28 09:37:28;;;;;;;3.20;2.40;;;20.60;99.90;;;;;;5003419;28;20206;-93
2022/07/28 09:40:12;;;;;;;4.60;2.63;;;20.60;99.90;;;;;;5006092;28;20237;-94
2022/07/28 09:42:48;;;;;;;4.47;2.33;;;20.60;99.90;;;;;;5002591;28;20234;-93
2022/07/28 09:45:27;;;;;;;5.20;2.47;;;20.60;99.90;;;;;;5001386;28;20214;-93
2022/07/28 09:48:13;;;;;;;5.53;2.57;;;20.60;99.90;;;;;;5001977;28;20283;-93
2022/07/28 09:50:44;;;;;;;3.30;2.30;;;20.50;99.90;;;;;;5006866;28;20237;-94
2022/07/28 09:53:26;;;;;;;4.80;2.90;;;20.40;99.90;;;;;;5019317;28;20206;-94
2022/07/28 09:56:00;;;;;;;3.53;2.73;;;20.40;99.90;;;;;;5019597;28;20266;-94
2022/07/28 09:58:32;;;;;;;2.83;2.43;;;20.50;99.90;;;;;;5019342;28;20217;-92
2022/07/28 10:01:10;;;;;;;2.80;2.60;;;20.40;99.90;;;;;;5005641;28;20678;-94
2022/07/28 10:03:44;;;;;;;5.03;2.67;;;20.40;99.90;;;;;;5001138;28;20245;-94
2022/07/28 10:06:17;;;;;;;5.20;2.70;;;20.40;99.90;;;;;;5000540;28;20207;-94
2022/07/28 10:08:52;;;;;;;3.53;2.67;;;20.30;99.90;;;;;;5000175;28;20674;-94
2022/07/28 10:11:27;;;;;;;4.10;2.77;;;20.30;99.90;;;;;;4999674;28;20229;-94
2022/07/28 10:14:01;;;;;;;2.60;2.23;;;20.30;99.90;;;;;;4999631;28;20653;-94
2022/07/28 10:16:34;;;;;;;3.70;2.70;;;20.30;99.90;;;;;;5012227;28;20576;-94
2022/07/28 10:19:06;;;;;;;3.23;2.63;;;20.20;99.90;;;;;;5018977;28;20209;-94
2022/07/28 10:21:44;;;;;;;2.40;2.10;;;20.20;99.90;;;;;;5018287;28;20233;-94
2022/07/28 10:28:01;;;;;;;3.50;2.53;;;20.10;99.90;;;;;;5030597;28;20216;-95
2022/07/28 10:30:39;;;;;;;3.13;2.10;;;20.10;99.90;;;;;;5004457;28;20320;-94
2022/07/28 10:33:16;;;;;;;3.33;2.37;;;20.10;99.90;;;;;;5006576;28;20210;-93
2022/07/28 10:35:50;;;;;;;2.80;2.20;;;20.00;99.90;;;;;;5012111;28;20206;-93
2022/07/28 10:38:28;;;;;;;5.67;2.50;;;19.90;99.90;;;;;;5019563;28;20267;-94
2022/07/28 10:41:02;;;;;;;4.27;2.50;;;19.90;99.90;;;;;;5025381;28;20281;-93
2022/07/28 10:43:36;;;;;;;4.40;2.53;;;19.90;99.90;;;;;;5018836;28;20209;-93
2022/07/28 10:46:30;;;;;;;2.93;2.40;;;19.80;99.90;;;;;;5019589;28;20214;-93
2022/07/28 10:49:04;;;;;;;3.27;2.93;;;19.80;99.90;;;;;;5021099;28;20617;-93
2022/07/28 10:51:42;;;;;;;3.83;2.73;;;19.80;99.90;;;;;;5018149;28;20241;-95
2022/07/28 10:54:35;;;;;;;3.43;2.63;;;19.80;99.90;;;;;;5018574;28;20226;-95
2022/07/28 10:57:13;;;;;;;3.47;2.47;;;19.70;99.90;;;;;;5017857;28;20607;-94
2022/07/28 11:00:00;;;;;;;4.87;2.67;;;19.70;99.90;;;;;;5019130;28;20256;-94
2022/07/28 11:02:47;;;;;;;5.00;2.50;;;19.70;99.90;;;;;;5017571;28;20214;-94
2022/07/28 11:05:33;;;;;;;2.87;2.40;;;19.70;99.90;;;;;;5018267;28;20710;-94
2022/07/28 11:08:08;;;;;;;3.73;2.47;;;19.70;99.90;;;;;;5018245;28;20216;-94
2022/07/28 11:10:47;;;;;;;4.33;2.60;;;19.70;99.90;;;;;;5018914;28;20232;-94
2022/07/28 11:13:27;;;;;;;3.50;2.60;;;19.70;99.90;;;;;;5018644;28;20657;-94
2022/07/28 11:16:23;;;;;;;3.70;2.50;;;19.60;99.90;;;;;;5009935;28;20281;-94
2022/07/28 11:19:11;;;;;;;3.17;2.50;;;19.60;99.90;;;;;;5000183;28;20217;-94
2022/07/28 11:22:27;;;;;;;5.70;2.60;;;19.60;99.90;;;;;;5001413;28;20802;-93
2022/07/28 11:25:17;;;;;;;2.93;2.50;;;19.60;99.90;;;;;;5002096;28;20675;-94
2022/07/28 11:28:06;;;;;;;4.50;2.57;;;19.60;99.90;;;;;;5016789;28;20241;-94
2022/07/28 11:30:56;;;;;;;3.60;2.63;;;19.60;99.90;;;;;;5016141;28;20216;-94
2022/07/28 11:33:55;;;;;;;3.97;2.53;;;19.60;99.90;;;;;;5012230;28;20210;-94
2022/07/28 11:37:01;;;;;;;4.70;2.60;;;19.60;99.90;;;;;;5014261;28;20230;-94
2022/07/28 11:39:34;;;;;;;2.90;2.40;;;19.60;99.90;;;;;;5016503;28;20213;-94
2022/07/28 11:42:31;;;;;;;4.83;2.80;;;19.60;99.90;;;;;;5016625;28;20217;-94
2022/07/28 11:45:26;;;;;;;3.50;2.57;;;19.50;99.90;;;;;;5015769;28;20225;-95
2022/07/28 11:48:22;;;;;;;5.63;2.67;;;19.50;99.90;;;;;;5016681;28;20220;-94
2022/07/28 11:51:13;;;;;;;4.03;2.70;;;19.50;99.90;;;;;;5015331;28;20248;-94
2022/07/28 11:53:45;;;;;;;3.07;2.20;;;19.50;99.90;;;;;;5005666;28;20651;-94
2022/07/28 11:56:23;;;;;;;4.27;2.70;;;19.40;99.90;;;;;;5003223;28;20211;-94
2022/07/28 11:58:59;;;;;;;4.33;2.70;;;19.40;99.90;;;;;;5002375;28;20214;-94
2022/07/28 12:01:32;;;;;;;3.73;2.60;;;19.40;99.90;;;;;;4998960;28;20221;-94
2022/07/28 12:04:13;;;;;;;6.40;2.90;;;19.30;99.90;;;;;;5000320;28;20209;-94
2022/07/28 12:06:48;;;;;;;3.13;2.70;;;19.30;99.90;;;;;;5000039;28;20253;-92
2022/07/28 12:09:21;;;;;;;3.23;2.30;;;19.30;99.90;;;;;;5001160;28;20209;-94
2022/07/28 12:11:58;;;;;;;3.50;2.60;;;19.30;99.90;;;;;;4998805;28;20230;-94
2022/07/28 12:14:29;;;;;;;3.43;2.90;;;19.30;99.90;;;;;;4998896;28;20214;-94
2022/07/28 12:17:08;;;;;;;5.00;2.97;;;19.20;99.90;;;;;;4999104;28;20567;-94
2022/07/28 12:19:41;;;;;;;4.77;2.77;;;19.20;99.90;;;;;;4999154;28;20663;-94
2022/07/28 12:22:15;;;;;;;6.00;2.83;;;19.20;99.90;;;;;;5000006;28;20221;-94
2022/07/28 12:24:47;;;;;;;3.77;2.30;;;19.10;99.90;;;;;;4997361;28;20213;-94
2022/07/28 12:27:28;;;;;;;6.97;2.63;;;19.10;99.90;;;;;;5007465;28;20210;-93
2022/07/28 12:30:02;;;;;;;3.27;2.60;;;19.10;99.90;;;;;;5018563;28;20209;-93
2022/07/28 12:32:33;;;;;;;3.63;2.93;;;19.00;99.90;;;;;;5016517;28;20220;-93
2022/07/28 12:35:05;;;;;;;3.97;2.80;;;19.00;99.90;;;;;;5017311;28;20229;-93
2022/07/28 12:37:40;;;;;;;2.83;2.50;;;19.00;99.90;;;;;;5017257;28;20213;-93
2022/07/28 12:40:13;;;;;;;5.70;3.23;;;19.10;99.90;;;;;;5018008;28;20217;-95
2022/07/28 12:42:44;;;;;;;4.00;2.67;;;19.00;99.90;;;;;;5018213;28;20209;-93
2022/07/28 12:45:21;;;;;;;4.60;2.70;;;19.00;99.90;;;;;;5020845;28;20213;-94
2022/07/28 12:47:52;;;;;;;4.00;2.23;;;19.00;99.90;;;;;;5023132;28;20225;-94
2022/07/28 12:50:24;;;;;;;4.30;2.43;;;19.00;99.90;;;;;;5019095;28;20214;-93
2022/07/28 12:53:07;;;;;;;3.07;2.77;;;18.90;99.90;;;;;;5018143;28;20211;-94
2022/07/28 12:55:39;;;;;;;4.67;2.83;;;18.90;99.90;;;;;;5017973;28;20209;-94
2022/07/28 12:58:25;;;;;;;5.57;2.90;;;18.90;99.90;;;;;;5017869;28;20213;-93
2022/07/28 13:00:57;;;;;;;5.43;2.60;;;18.90;99.90;;;;;;5016524;28;20229;-94
2022/07/28 13:03:29;;;;;;;4.20;2.07;;;18.80;99.90;;;;;;5018154;28;20650;-94
2022/07/28 13:06:12;;;;;;;3.37;2.53;;;18.80;99.90;;;;;;5018579;28;20875;-94
2022/07/28 13:08:48;;;;;;;4.33;2.80;;;18.80;99.90;;;;;;5026216;28;20213;-94
2022/07/28 13:11:31;;;;;;;4.57;2.30;;;18.80;99.90;;;;;;5017107;28;20587;-94
2022/07/28 13:14:16;;;;;;;3.40;2.47;;;18.70;99.90;;;;;;5021089;28;20271;-94
2022/07/28 13:16:59;;;;;;;3.30;2.40;;;18.80;99.90;;;;;;5021019;28;20210;-92
2022/07/28 13:19:31;;;;;;;3.30;2.47;;;18.80;99.90;;;;;;5022441;28;20232;-93
2022/07/28 13:22:02;;;;;;;3.37;2.60;;;18.80;99.90;;;;;;5022726;28;20225;-94
2022/07/28 13:24:41;;;;;;;4.73;2.70;;;18.70;99.90;;;;;;5024175;28;20217;-94
2022/07/28 13:27:13;;;;;;;3.77;2.80;;;18.70;99.90;;;;;;5023101;28;20217;-93
2022/07/28 13:29:45;;;;;;;2.80;2.60;;;18.80;99.90;;;;;;5007852;28;20214;-94
2022/07/28 13:32:18;;;;;;;2.97;2.67;;;18.90;99.90;;;;;;5002999;28;20242;-93
2022/07/28 13:34:49;;;;;;;4.53;2.80;;;18.90;99.90;;;;;;5000338;28;20281;-94
2022/07/28 13:37:20;;;;;;;2.93;2.63;;;18.90;99.90;;;;;;5000084;28;20211;-94
2022/07/28 13:39:53;;;;;;;6.10;3.27;;;19.00;99.90;;;;;;5000513;28;20214;-93
2022/07/28 13:42:25;;;;;;;4.57;2.53;;;19.00;99.90;;;;;;4999857;28;20272;-94
2022/07/28 13:44:56;;;;;;;4.77;2.70;;;19.00;99.90;;;;;;5000386;28;20284;-94
2022/07/28 13:47:30;;;;;;;5.63;2.90;;;19.10;99.90;;;;;;5002233;28;20257;-94
2022/07/28 13:50:08;;;;;;;3.63;2.90;;;19.10;99.90;;;;;;5002856;28;20591;-94
2022/07/28 13:52:41;;;;;;;4.53;3.20;;;19.20;99.90;;;;;;5000774;28;20606;-93
2022/07/28 13:55:15;;;;;;;7.50;3.60;;;19.30;99.90;;;;;;5000221;28;20241;-93
2022/07/28 13:57:53;;;;;;;4.90;3.20;;;19.30;99.90;;;;;;5001439;28;20210;-94
2022/07/28 14:00:25;;;;;;;6.47;3.10;;;19.30;99.90;;;;;;5000301;28;20210;-94
2022/07/28 14:02:58;;;;;;;4.10;3.30;;;19.40;99.90;;;;;;5000094;28;20563;-94
2022/07/28 14:05:31;;;;;;;5.37;3.23;;;19.50;99.90;;;;;;4999852;28;20214;-94
2022/07/28 14:08:04;;;;;;;4.67;3.10;;;19.50;99.90;;;;;;5001500;28;20202;-94
2022/07/28 14:10:37;;;;;;;4.20;3.27;;;19.60;99.90;;;;;;5002693;28;20272;-94
2022/07/28 14:13:08;;;;;;;5.30;3.30;;;19.60;99.90;;;;;;4997862;28;20234;-94
2022/07/28 14:15:39;;;;;;;6.40;3.63;;;19.70;99.90;;;;;;4999657;28;20276;-94
2022/07/28 14:18:11;;;;;;;6.23;3.50;;;19.80;99.90;;;;;;4999118;28;20207;-94
2022/07/28 14:20:43;;;;;;;4.27;2.93;;;19.80;99.90;;;;;;5000599;28;20593;-94
2022/07/28 14:23:14;;;;;;;5.37;3.30;;;19.80;99.90;;;;;;4997664;28;20268;-94
2022/07/28 14:25:49;;;;;;;4.57;3.30;;;19.80;99.90;;;;;;4652889;28;10000168;-95
2022/07/28 14:28:20;;;;;;;3.63;3.20;;;19.90;99.90;;;;;;4999781;28;20734;-94
2022/07/28 14:30:52;;;;;;;6.53;3.33;;;19.90;99.90;;;;;;4998764;28;20662;-93
2022/07/28 14:33:23;;;;;;;4.53;3.63;;;20.00;99.90;;;;;;4999974;28;20308;-93
2022/07/28 14:35:55;;;;;;;4.03;3.20;;;20.00;99.90;;;;;;4999371;28;20673;-93
2022/07/28 14:38:27;;;;;;;3.77;3.40;;;20.10;99.90;;;;;;4999105;28;20214;-93
2022/07/28 14:41:20;;;;;;;6.60;3.97;;;20.10;99.90;;;;;;4997967;28;20238;-94
2022/07/28 14:43:52;;;;;;;7.47;3.70;;;20.20;99.90;;;;;;4999787;28;20248;-94
2022/07/28 14:46:23;;;;;;;6.60;3.73;;;20.30;99.90;;;;;;4999250;28;20222;-94
2022/07/28 14:48:59;;;;;;;4.93;3.73;;;20.30;99.90;;;;;;4998921;28;20300;-93
2022/07/28 14:51:31;;;;;;;4.57;3.40;;;20.40;99.90;;;;;;4996904;28;20273;-94
2022/07/28 14:54:04;;;;;;;3.90;3.50;;;20.50;99.90;;;;;;4998486;28;20206;-94
2022/07/28 14:56:38;;;;;;;5.07;3.70;;;20.70;99.90;;;;;;4998606;28;20741;-94
2022/07/28 14:59:09;;;;;;;6.23;3.67;;;21.20;99.90;;;;;;4998549;28;20667;-94
2022/07/28 15:01:41;;;;;;;6.33;3.73;;;21.80;99.90;;;;;;4997862;28;20221;-94
2022/07/28 15:04:12;;;;;;;4.27;3.30;;;22.30;99.90;;;;;;5000756;28;20302;-94
2022/07/28 15:06:46;;;;;;;5.00;3.47;;;22.40;99.90;;;;;;4999204;28;20691;-94
2022/07/28 15:09:17;;;;;;;4.33;3.37;;;22.50;99.90;;;;;;5001745;28;20218;-94
2022/07/28 15:11:50;;;;;;;6.93;3.50;;;22.90;99.90;;;;;;4997770;28;20284;-94
2022/07/28 15:14:25;;;;;;;4.97;3.20;;;23.10;99.90;;;;;;4998393;28;20226;-94
2022/07/28 15:16:55;;;;;;;6.27;3.43;;;23.10;99.90;;;;;;4998209;28;20218;-94
2022/07/28 15:19:27;;;;;;;4.00;3.03;;;22.80;99.90;;;;;;4999063;28;20356;-94
2022/07/28 15:21:58;;;;;;;3.93;3.13;;;22.60;99.90;;;;;;4998795;28;20218;-94
2022/07/28 15:24:32;;;;;;;5.20;2.93;;;22.70;99.90;;;;;;5000585;28;20219;-95
2022/07/28 15:27:06;;;;;;;6.30;3.07;;;22.70;99.90;;;;;;5004955;28;20206;-93
2022/07/28 15:29:37;;;;;;;5.47;3.27;;;22.70;99.90;;;;;;5016432;28;20218;-94
2022/07/28 15:32:12;;;;;;;4.97;2.70;;;22.70;99.90;;;;;;5016339;28;20221;-94
2022/07/28 15:34:46;;;;;;;4.07;2.67;;;22.70;99.90;;;;;;5013958;28;20202;-94
2022/07/28 15:37:19;;;;;;;5.20;3.20;;;22.30;99.90;;;;;;5015558;28;20202;-94
2022/07/28 15:43:21;;;;;;;3.47;2.70;;;22.10;99.90;;;;;;5009123;28;20203;-95
2022/07/28 15:45:59;;;;;;;5.23;3.27;;;22.20;99.90;;;;;;5015450;28;20202;-94
2022/07/28 15:48:35;;;;;;;4.23;3.30;;;22.30;99.90;;;;;;5011069;28;20182;-94
2022/07/28 15:54:16;;;;;;;5.43;3.30;;;22.50;99.90;;;;;;5013697;28;20253;-94
2022/07/28 16:03:30;;;;;;;4.13;3.73;;;22.80;99.90;;;;;;4985308;28;20230;-94
2022/07/28 16:06:02;;;;;;;4.17;3.50;;;22.90;99.90;;;;;;4980777;28;20218;-94
2022/07/28 16:08:33;;;;;;;4.80;3.77;;;23.00;99.90;;;;;;4984270;28;20215;-94
2022/07/28 16:17:01;;;;;;;7.50;3.87;;;23.20;99.90;;;;;;4979508;28;20238;-94
2022/07/28 16:28:25;;;;;;;6.47;3.87;;;23.50;99.90;;;;;;5083157;23;20194;-94
2022/07/28 16:36:56;;;;;;;9.67;4.10;;;23.80;99.90;;;;;;5528106;23;20240;-94
2022/07/28 16:39:29;;;;;;;8.30;3.93;;;23.90;99.90;;;;;;5035690;28;20189;-93
2022/07/28 16:50:12;;;;;;;9.73;4.33;;;24.30;99.90;;;;;;6049965;23;20204;-95
2022/07/28 16:52:57;;;;;;;6.37;4.07;;;24.50;99.90;;;;;;5058490;28;20220;-96
2022/07/28 16:55:35;;;;;;;4.47;3.97;;;24.60;99.90;;;;;;5051302;28;20224;-95
2022/07/28 16:58:20;;;;;;;7.00;4.73;;;24.70;99.90;;;;;;5054007;28;20264;-95
2022/07/28 17:06:23;;;;;;;6.17;4.30;;;25.00;99.90;;;;;;5051875;28;20208;-94
2022/07/28 17:09:00;;;;;;;5.57;4.53;;;25.20;99.90;;;;;;5052409;28;20216;-94
2022/07/28 17:11:39;;;;;;;6.53;4.10;;;25.20;99.90;;;;;;5051859;28;20220;-95
2022/07/28 17:14:15;;;;;;;7.10;4.50;;;25.30;99.90;;;;;;5053749;28;20248;-94
2022/07/28 17:16:51;;;;;;;8.17;4.23;;;25.40;99.90;;;;;;5055310;28;20201;-95
2022/07/28 17:19:37;;;;;;;6.60;4.10;;;25.50;99.90;;;;;;5054290;28;20227;-94
2022/07/28 17:22:23;;;;;;;6.67;4.33;;;25.60;99.90;;;;;;5052659;28;20209;-95
2022/07/28 17:24:57;;;;;;;6.17;4.63;;;25.60;99.90;;;;;;5050097;28;20205;-95
2022/07/28 17:27:29;;;;;;;6.60;4.20;;;25.70;99.90;;;;;;5045595;28;20208;-95
2022/07/28 17:30:08;;;;;;;7.83;4.23;;;25.80;99.90;;;;;;5039130;28;20220;-95
2022/07/28 17:32:38;;;;;;;9.93;4.37;;;25.90;99.90;;;;;;5040637;28;20271;-95
2022/07/28 17:35:11;;;;;;;7.30;4.40;;;26.00;99.90;;;;;;5039663;28;20296;-95
2022/07/28 17:38:05;;;;;;;5.57;4.43;;;26.00;99.90;;;;;;5049502;28;20255;-95
2022/07/28 17:40:41;;;;;;;4.67;4.23;;;26.20;99.90;;;;;;5048568;28;20535;-96
2022/07/28 17:43:16;;;;;;;5.20;4.43;;;26.30;99.90;;;;;;5049624;28;20239;-96
2022/07/28 17:45:49;;;;;;;7.23;4.47;;;26.40;99.90;;;;;;5030567;28;20216;-96
2022/07/28 17:48:21;;;;;;;8.97;4.70;;;26.50;99.90;;;;;;5038202;28;20209;-96
2022/07/28 17:50:54;;;;;;;6.80;4.43;;;26.50;99.90;;;;;;5047856;28;20681;-96
2022/07/28 17:53:26;;;;;;;7.43;4.10;;;26.50;99.90;;;;;;5043201;28;20241;-96
2022/07/28 17:56:04;;;;;;;6.37;4.50;;;26.70;99.90;;;;;;5049941;28;20209;-96
2022/07/28 17:58:41;;;;;;;6.73;4.80;;;26.80;99.90;;;;;;5040733;28;20229;-96
2022/07/28 18:01:14;;;;;;;6.50;4.30;;;26.90;99.90;;;;;;5035641;28;20193;-95
2022/07/28 18:03:48;;;;;;;5.17;3.87;;;27.10;99.90;;;;;;5028408;28;20224;-95
2022/07/28 18:06:35;;;;;;;9.53;4.43;;;27.20;99.90;;;;;;5028869;28;20209;-96
2022/07/28 18:09:13;;;;;;;7.20;4.10;;;27.40;99.90;;;;;;5037412;28;20213;-96
2022/07/28 18:11:55;;;;;;;5.27;4.20;;;27.40;99.90;;;;;;5028520;28;20197;-93
2022/07/28 18:14:30;;;;;;;5.53;3.90;;;27.40;99.90;;;;;;5031190;28;20221;-94
2022/07/28 18:22:47;;;;;;;8.17;4.53;;;27.60;99.90;;;;;;5053873;28;20213;-94
2022/07/28 18:25:18;;;;;;;7.27;4.37;;;27.80;99.90;;;;;;5046284;28;20209;-94
2022/07/28 18:33:22;;;;;;;5.97;4.40;;;27.90;99.90;;;;;;5019976;28;20237;-95
2022/07/28 18:35:54;;;;;;;5.77;4.07;;;28.00;99.90;;;;;;5033765;28;20625;-95
2022/07/28 18:38:27;;;;;;;8.27;4.37;;;28.10;99.90;;;;;;5029971;28;20217;-96
2022/07/28 18:40:59;;;;;;;8.50;4.50;;;28.20;99.90;;;;;;5028429;28;20213;-95
2022/07/28 18:43:32;;;;;;;4.83;4.30;;;28.30;99.90;;;;;;5027075;28;20618;-96
2022/07/28 18:46:07;;;;;;;6.43;4.17;;;28.50;99.90;;;;;;5029821;28;20205;-96